createdAt,value
2018-08-25T00:02:11.425Z,97.24
2018-08-25T00:04:40.858Z,98.14
2018-08-25T00:07:10.271Z,100.00
2018-08-25T00:09:39.515Z,100.00
2018-08-25T00:12:08.743Z,100.00
2018-08-25T00:14:37.969Z,100.00
2018-08-25T00:17:07.235Z,100.00
2018-08-25T00:19:36.488Z,97.90
2018-08-25T00:22:05.718Z,97.69
2018-08-25T00:24:34.966Z,100.00
2018-08-25T00:27:04.235Z,100.00
2018-08-25T00:29:33.483Z,100.00
2018-08-25T00:32:02.727Z,98.82
2018-08-25T00:34:31.958Z,97.33
2018-08-25T00:37:01.206Z,97.36
2018-08-25T00:39:30.435Z,96.77
2018-08-25T00:41:59.651Z,96.68
2018-08-25T00:44:28.896Z,96.84
2018-08-25T00:46:58.146Z,98.78
2018-08-25T00:49:27.399Z,98.37
2018-08-25T00:51:56.641Z,99.76
2018-08-25T00:54:25.908Z,100.00
2018-08-25T00:56:55.254Z,100.00
2018-08-25T00:59:25.898Z,99.03
2018-08-25T01:01:55.059Z,100.00
2018-08-25T01:04:24.319Z,100.00
2018-08-25T01:06:53.576Z,100.00
2018-08-25T01:09:22.827Z,100.00
2018-08-25T01:11:52.057Z,100.00
2018-08-25T01:14:21.307Z,100.00
2018-08-25T01:16:50.559Z,100.00
2018-08-25T01:19:19.782Z,100.00
2018-08-25T01:21:49.019Z,100.00
2018-08-25T01:24:18.256Z,100.00
2018-08-25T01:26:47.515Z,100.00
2018-08-25T01:29:16.738Z,100.00
2018-08-25T01:31:45.998Z,99.75
2018-08-25T01:34:15.241Z,100.00
2018-08-25T01:36:44.483Z,99.11
2018-08-25T01:39:13.710Z,97.34
2018-08-25T01:41:42.950Z,97.38
2018-08-25T01:44:12.176Z,98.05
2018-08-25T01:46:41.410Z,97.95
2018-08-25T01:49:10.647Z,98.24
2018-08-25T01:51:39.934Z,97.63
2018-08-25T01:54:10.189Z,97.61
2018-08-25T01:56:39.455Z,97.93
2018-08-25T01:59:09.167Z,99.67
2018-08-25T02:01:38.431Z,100.00
2018-08-25T02:04:07.653Z,96.36
2018-08-25T02:06:36.886Z,95.15
2018-08-25T02:09:10.637Z,93.65
2018-08-25T02:11:40.110Z,92.15
2018-08-25T02:14:09.815Z,92.83
2018-08-25T02:16:39.690Z,94.27
2018-08-25T02:19:08.943Z,95.35
2018-08-25T02:21:38.288Z,92.43
2018-08-25T02:24:07.551Z,92.00
2018-08-25T02:26:36.783Z,95.93
2018-08-25T02:29:06.037Z,96.43
2018-08-25T02:31:35.259Z,94.29
2018-08-25T02:34:04.497Z,96.65
2018-08-25T02:36:33.729Z,96.97
2018-08-25T02:39:03.000Z,97.49
2018-08-25T02:41:32.238Z,96.96
2018-08-25T02:44:01.462Z,94.12
2018-08-25T02:46:30.688Z,94.43
2018-08-25T02:48:59.919Z,94.36
2018-08-25T02:51:29.151Z,93.17
2018-08-25T02:53:58.383Z,91.50
2018-08-25T02:56:27.665Z,92.10
2018-08-25T02:58:56.889Z,92.91
2018-08-25T03:01:26.259Z,93.41
2018-08-25T03:03:55.470Z,93.54
2018-08-25T03:06:24.728Z,95.91
2018-08-25T03:08:53.967Z,94.50
2018-08-25T03:11:23.207Z,93.72
2018-08-25T03:13:52.747Z,95.57
2018-08-25T03:16:21.907Z,91.47
2018-08-25T03:18:51.133Z,94.29
2018-08-25T03:21:20.361Z,97.19
2018-08-25T03:23:49.588Z,94.91
2018-08-25T03:26:18.817Z,94.84
2018-08-25T03:28:48.046Z,96.12
2018-08-25T03:31:17.272Z,96.33
2018-08-25T03:33:46.651Z,93.59
2018-08-25T03:36:17.127Z,93.31
2018-08-25T03:38:46.370Z,95.80
2018-08-25T03:41:15.611Z,96.93
2018-08-25T03:43:44.876Z,96.56
2018-08-25T03:46:14.098Z,97.79
2018-08-25T03:48:43.365Z,100.00
2018-08-25T03:51:12.601Z,99.57
2018-08-25T03:53:41.872Z,95.52
2018-08-25T03:56:11.086Z,95.03
2018-08-25T03:58:40.317Z,95.00
2018-08-25T04:01:09.554Z,93.36
2018-08-25T04:03:38.791Z,94.03
2018-08-25T04:06:08.022Z,94.33
2018-08-25T04:08:37.253Z,93.27
2018-08-25T04:11:06.494Z,92.14
2018-08-25T04:13:35.742Z,91.05
2018-08-25T04:16:04.950Z,91.23
2018-08-25T04:18:34.209Z,90.54
2018-08-25T04:21:03.453Z,90.67
2018-08-25T04:23:32.669Z,92.14
2018-08-25T04:26:01.890Z,92.72
2018-08-25T04:28:31.126Z,95.90
2018-08-25T04:31:00.404Z,93.56
2018-08-25T04:33:29.668Z,94.13
2018-08-25T04:35:58.880Z,92.75
2018-08-25T04:38:28.107Z,92.65
2018-08-25T04:40:57.335Z,94.79
2018-08-25T04:43:26.564Z,94.71
2018-08-25T04:45:55.814Z,94.47
2018-08-25T04:48:25.064Z,96.68
2018-08-25T04:50:54.275Z,96.08
2018-08-25T04:53:23.494Z,95.05
2018-08-25T04:55:52.743Z,93.63
2018-08-25T04:58:21.957Z,96.99
2018-08-25T05:00:51.195Z,97.89
2018-08-25T05:03:20.423Z,97.83
2018-08-25T05:05:49.646Z,89.70
2018-08-25T05:08:18.879Z,90.44
2018-08-25T05:11:18.807Z,90.86
2018-08-25T05:13:48.043Z,92.00
2018-08-25T05:16:17.272Z,92.41
2018-08-25T05:18:46.508Z,94.57
2018-08-25T05:21:15.733Z,93.64
2018-08-25T05:23:45.036Z,94.32
2018-08-25T05:26:14.254Z,95.63
2018-08-25T05:28:43.494Z,92.35
2018-08-25T05:31:12.712Z,92.08
2018-08-25T05:33:41.943Z,91.63
2018-08-25T05:36:11.207Z,91.84
2018-08-25T05:38:40.443Z,93.68
2018-08-25T05:41:09.671Z,92.14
2018-08-25T05:43:38.928Z,91.71
2018-08-25T05:46:08.171Z,91.94
2018-08-25T05:48:37.429Z,91.10
2018-08-25T05:51:09.786Z,91.59
2018-08-25T05:53:39.021Z,90.23
2018-08-25T05:56:08.424Z,89.59
2018-08-25T05:58:37.672Z,92.13
2018-08-25T06:01:06.886Z,91.01
2018-08-25T06:03:36.141Z,93.75
2018-08-25T06:06:05.359Z,92.35
2018-08-25T06:08:34.607Z,88.96
2018-08-25T06:11:03.861Z,90.51
2018-08-25T06:13:33.192Z,87.57
2018-08-25T06:16:02.351Z,92.06
2018-08-25T06:18:31.579Z,90.27
2018-08-25T06:21:00.807Z,88.69
2018-08-25T06:23:30.059Z,87.75
2018-08-25T06:25:59.268Z,86.02
2018-08-25T06:28:28.513Z,83.95
2018-08-25T06:30:57.871Z,86.60
2018-08-25T06:33:27.131Z,85.14
2018-08-25T06:35:56.352Z,86.48
2018-08-25T06:38:25.571Z,84.03
2018-08-25T06:40:54.799Z,85.75
2018-08-25T06:43:24.044Z,82.80
2018-08-25T06:45:58.514Z,80.15
2018-08-25T06:48:27.804Z,81.15
2018-08-25T06:50:57.017Z,79.58
2018-08-25T06:53:26.272Z,78.74
2018-08-25T06:55:55.500Z,76.34
2018-08-25T06:58:24.727Z,76.35
2018-08-25T07:00:54.252Z,78.14
2018-08-25T07:03:23.486Z,73.80
2018-08-25T07:05:52.869Z,74.66
2018-08-25T07:08:22.067Z,75.68
2018-08-25T07:10:51.292Z,76.10
2018-08-25T07:13:20.517Z,74.23
2018-08-25T07:15:49.739Z,73.64
2018-08-25T07:18:18.980Z,77.28
2018-08-25T07:20:48.215Z,73.47
2018-08-25T07:23:17.476Z,72.38
2018-08-25T07:25:46.769Z,67.54
2018-08-25T07:28:17.167Z,70.87
2018-08-25T07:30:46.412Z,65.84
2018-08-25T07:33:15.646Z,66.64
2018-08-25T07:35:44.865Z,64.87
2018-08-25T07:38:15.001Z,59.27
2018-08-25T07:40:45.406Z,56.01
2018-08-25T07:43:14.638Z,58.47
2018-08-25T07:45:43.937Z,61.41
2018-08-25T07:48:13.180Z,59.00
2018-08-25T07:50:42.395Z,60.00
2018-08-25T07:53:11.643Z,60.75
2018-08-25T07:55:40.954Z,58.05
2018-08-25T07:58:10.175Z,58.48
2018-08-25T08:00:39.420Z,57.91
2018-08-25T08:03:08.634Z,54.02
2018-08-25T08:05:37.955Z,56.55
2018-08-25T08:08:07.096Z,55.44
2018-08-25T08:10:36.355Z,55.81
2018-08-25T08:13:05.606Z,51.84
2018-08-25T08:15:34.837Z,51.81
2018-08-25T08:18:04.062Z,50.05
2018-08-25T08:20:33.291Z,53.49
2018-08-25T08:23:02.506Z,54.00
2018-08-25T08:25:31.948Z,52.47
2018-08-25T08:28:01.429Z,52.13
2018-08-25T08:30:30.668Z,52.62
2018-08-25T08:32:59.961Z,52.33
2018-08-25T08:35:29.134Z,49.35
2018-08-25T08:37:58.357Z,50.97
2018-08-25T08:40:27.575Z,51.43
2018-08-25T08:42:56.855Z,48.16
2018-08-25T08:45:26.111Z,50.55
2018-08-25T08:47:55.328Z,52.26
2018-08-25T08:50:24.621Z,52.28
2018-08-25T08:52:53.778Z,52.93
2018-08-25T08:55:23.011Z,51.94
2018-08-25T08:57:52.251Z,52.71
2018-08-25T09:00:21.498Z,52.55
2018-08-25T09:02:50.764Z,52.59
2018-08-25T09:05:20.007Z,53.33
2018-08-25T09:07:49.359Z,53.99
2018-08-25T09:10:18.627Z,52.88
2018-08-25T09:12:47.839Z,51.54
2018-08-25T09:15:17.095Z,51.85
2018-08-25T09:17:46.326Z,51.81
2018-08-25T09:20:15.647Z,54.07
2018-08-25T09:22:44.871Z,52.50
2018-08-25T09:25:14.135Z,51.75
2018-08-25T09:27:46.475Z,52.97
2018-08-25T09:30:15.724Z,55.13
2018-08-25T09:32:44.953Z,52.00
2018-08-25T09:35:14.190Z,50.04
2018-08-25T09:37:43.398Z,52.46
2018-08-25T09:40:12.620Z,50.36
2018-08-25T09:42:41.852Z,49.59
2018-08-25T09:45:11.078Z,50.22
2018-08-25T09:47:40.300Z,53.41
2018-08-25T09:50:09.527Z,53.55
2018-08-25T09:52:38.755Z,53.00
2018-08-25T09:55:08.246Z,52.24
2018-08-25T09:57:37.483Z,53.35
2018-08-25T10:00:06.752Z,51.12
2018-08-25T10:02:36.240Z,53.06
2018-08-25T10:05:06.391Z,56.52
2018-08-25T10:07:35.606Z,51.54
2018-08-25T10:10:05.967Z,51.07
2018-08-25T10:12:35.215Z,51.08
2018-08-25T10:15:04.452Z,53.13
2018-08-25T10:17:34.960Z,54.47
2018-08-25T10:20:04.213Z,53.35
2018-08-25T10:22:33.456Z,55.03
2018-08-25T10:25:02.680Z,53.87
2018-08-25T10:27:31.932Z,50.19
2018-08-25T10:30:01.159Z,50.88
2018-08-25T10:32:30.395Z,48.88
2018-08-25T10:34:59.618Z,49.10
2018-08-25T10:37:28.852Z,47.68
2018-08-25T10:39:58.078Z,48.22
2018-08-25T10:42:27.298Z,47.43
2018-08-25T10:44:56.534Z,47.97
2018-08-25T10:47:25.767Z,46.35
2018-08-25T10:49:54.984Z,47.38
2018-08-25T10:52:24.209Z,50.29
2018-08-25T10:54:53.441Z,47.28
2018-08-25T10:57:22.706Z,46.81
2018-08-25T10:59:51.929Z,46.55
2018-08-25T11:02:25.492Z,47.94
2018-08-25T11:04:54.855Z,49.54
2018-08-25T11:07:24.660Z,47.70
2018-08-25T11:09:54.586Z,48.11
2018-08-25T11:12:23.859Z,49.12
2018-08-25T11:14:53.120Z,46.93
2018-08-25T11:17:22.353Z,47.32
2018-08-25T11:19:51.587Z,48.60
2018-08-25T11:22:20.819Z,48.43
2018-08-25T11:24:50.043Z,48.05
2018-08-25T11:27:19.263Z,46.32
2018-08-25T11:29:48.666Z,49.82
2018-08-25T11:32:19.007Z,48.26
2018-08-25T11:34:48.251Z,50.82
2018-08-25T11:37:17.514Z,48.31
2018-08-25T11:39:46.715Z,49.14
2018-08-25T11:42:15.949Z,49.76
2018-08-25T11:44:45.172Z,50.94
2018-08-25T11:47:14.903Z,51.88
2018-08-25T11:49:44.955Z,47.54
2018-08-25T11:52:14.335Z,45.11
2018-08-25T11:54:43.911Z,48.47
2018-08-25T11:57:13.995Z,46.63
2018-08-25T11:59:43.236Z,47.93
2018-08-25T12:02:12.560Z,49.23
2018-08-25T12:04:41.750Z,47.29
2018-08-25T12:07:10.971Z,49.48
2018-08-25T12:09:40.268Z,54.03
2018-08-25T12:12:09.435Z,53.32
2018-08-25T12:14:38.679Z,51.36
2018-08-25T12:20:07.566Z,53.75
2018-08-25T12:22:37.064Z,52.08
2018-08-25T12:25:06.659Z,54.44
2018-08-25T12:27:35.874Z,54.09
2018-08-25T12:30:05.265Z,57.25
2018-08-25T12:32:34.547Z,57.47
2018-08-25T12:35:03.767Z,59.12
2018-08-25T12:37:33.023Z,60.16
2018-08-25T12:40:02.268Z,61.37
2018-08-25T12:42:31.531Z,59.54
2018-08-25T12:45:00.778Z,60.21
2018-08-25T12:47:30.010Z,61.92
2018-08-25T12:49:59.216Z,62.77
2018-08-25T12:52:28.439Z,63.46
2018-08-25T12:54:57.672Z,63.38
2018-08-25T12:57:26.915Z,63.62
2018-08-25T12:59:56.143Z,66.50
2018-08-25T13:02:25.418Z,66.96
2018-08-25T13:04:54.664Z,66.92
2018-08-25T13:07:23.968Z,68.73
2018-08-25T13:09:53.227Z,70.91
2018-08-25T13:12:22.475Z,69.93
2018-08-25T13:14:51.775Z,72.85
2018-08-25T13:17:21.117Z,76.04
2018-08-25T13:19:50.364Z,76.93
2018-08-25T13:22:19.628Z,78.79
2018-08-25T13:24:48.935Z,81.22
2018-08-25T13:27:18.322Z,82.64
2018-08-25T13:29:47.600Z,84.00
2018-08-25T13:32:16.887Z,84.03
2018-08-25T13:34:46.162Z,84.71
2018-08-25T13:37:15.453Z,85.22
2018-08-25T13:39:44.702Z,84.46
2018-08-25T13:42:13.983Z,84.15
2018-08-25T13:44:43.292Z,83.87
2018-08-25T13:47:12.523Z,82.42
2018-08-25T13:49:41.840Z,82.67
2018-08-25T13:52:11.179Z,83.63
2018-08-25T13:54:40.458Z,85.47
2018-08-25T13:57:09.799Z,83.62
2018-08-25T13:59:39.111Z,84.21
2018-08-25T14:02:08.848Z,85.96
2018-08-25T14:04:38.128Z,86.48
2018-08-25T14:07:07.401Z,87.06
2018-08-25T14:09:37.804Z,87.09
2018-08-25T14:12:07.192Z,87.95
2018-08-25T14:14:36.495Z,89.10
2018-08-25T14:17:05.791Z,89.38
2018-08-25T14:19:35.161Z,87.63
2018-08-25T14:22:04.678Z,88.27
2018-08-25T14:24:34.015Z,87.55
2018-08-25T14:27:03.943Z,87.67
2018-08-25T14:29:33.372Z,85.84
2018-08-25T14:32:02.990Z,84.40
2018-08-25T14:34:32.462Z,82.34
2018-08-25T14:37:01.864Z,78.89
2018-08-25T14:39:31.261Z,80.58
2018-08-25T14:42:00.562Z,79.96
2018-08-25T14:44:29.827Z,78.82
2018-08-25T14:46:59.109Z,80.73
2018-08-25T14:49:28.427Z,80.82
2018-08-25T14:51:57.699Z,82.88
2018-08-25T14:54:26.980Z,81.48
2018-08-25T14:56:56.222Z,79.40
2018-08-25T14:59:25.499Z,79.84
2018-08-25T15:01:54.769Z,79.58
2018-08-25T15:04:23.999Z,79.93
2018-08-25T15:06:53.267Z,80.27
2018-08-25T15:09:22.492Z,81.03
2018-08-25T15:11:51.781Z,75.65
2018-08-25T15:14:21.075Z,75.59
2018-08-25T15:16:50.332Z,76.52
2018-08-25T15:19:19.611Z,73.92
2018-08-25T15:21:49.007Z,74.57
2018-08-25T15:24:18.270Z,72.56
2018-08-25T15:26:47.546Z,73.72
2018-08-25T15:29:16.832Z,77.46
2018-08-25T15:31:46.095Z,74.30
2018-08-25T15:34:15.434Z,77.77
2018-08-25T15:36:44.728Z,81.17
2018-08-25T15:39:14.941Z,82.89
2018-08-25T15:41:44.272Z,85.25
2018-08-25T15:44:13.609Z,83.41
2018-08-25T15:46:42.855Z,85.60
2018-08-25T15:49:12.111Z,84.37
2018-08-25T15:51:41.399Z,84.69
2018-08-25T15:54:10.975Z,84.91
2018-08-25T15:56:40.240Z,84.86
2018-08-25T15:59:09.512Z,86.75
2018-08-25T16:01:38.812Z,86.02
2018-08-25T16:04:08.100Z,85.33
2018-08-25T16:06:37.330Z,83.69
2018-08-25T16:09:09.576Z,84.93
2018-08-25T16:11:38.987Z,83.62
2018-08-25T16:14:08.250Z,83.33
2018-08-25T16:16:37.616Z,84.94
2018-08-25T16:19:07.069Z,85.30
2018-08-25T16:21:36.450Z,85.07
2018-08-25T16:24:05.718Z,83.29
2018-08-25T16:26:34.968Z,84.71
2018-08-25T16:29:04.240Z,86.18
2018-08-25T16:31:33.523Z,85.76
2018-08-25T16:34:02.813Z,84.79
2018-08-25T16:36:32.142Z,87.19
2018-08-25T16:39:01.390Z,85.32
2018-08-25T16:41:30.671Z,88.01
2018-08-25T16:43:59.968Z,87.28
2018-08-25T16:46:29.616Z,89.94
2018-08-25T16:48:58.891Z,89.94
2018-08-25T16:51:28.170Z,89.58
2018-08-25T16:53:57.453Z,88.49
2018-08-25T16:56:26.702Z,90.01
2018-08-25T16:58:56.128Z,91.74
2018-08-25T17:01:25.429Z,89.92
2018-08-25T17:03:54.722Z,92.53
2018-08-25T17:06:24.088Z,93.97
2018-08-25T17:08:53.590Z,94.44
2018-08-25T17:11:23.112Z,92.42
2018-08-25T17:13:52.624Z,92.42
2018-08-25T17:16:22.046Z,93.75
2018-08-25T17:18:51.457Z,94.68
2018-08-25T17:21:20.877Z,95.19
2018-08-25T17:23:50.268Z,93.19
2018-08-25T17:26:19.623Z,93.59
2018-08-25T17:28:49.034Z,94.87
2018-08-25T17:31:18.498Z,93.86
2018-08-25T17:33:47.924Z,94.30
2018-08-25T17:36:17.209Z,95.32
2018-08-25T17:38:46.540Z,94.64
2018-08-25T17:41:15.822Z,93.96
2018-08-25T17:43:45.111Z,94.67
2018-08-25T17:46:14.382Z,94.52
2018-08-25T17:48:43.818Z,95.20
2018-08-25T17:51:13.140Z,94.51
2018-08-25T17:53:42.369Z,94.72
2018-08-25T17:56:12.025Z,93.75
2018-08-25T17:58:41.287Z,94.32
2018-08-25T18:01:10.630Z,95.30
2018-08-25T18:03:39.954Z,95.40
2018-08-25T18:06:09.259Z,96.46
2018-08-25T18:08:38.519Z,96.16
2018-08-25T18:11:07.909Z,95.23
2018-08-25T18:13:37.220Z,95.26
2018-08-25T18:16:06.882Z,94.60
2018-08-25T18:18:36.426Z,95.02
2018-08-25T18:21:06.038Z,95.98
2018-08-25T18:23:35.450Z,95.55
2018-08-25T18:26:05.015Z,95.98
2018-08-25T18:28:34.669Z,96.29
2018-08-25T18:31:05.140Z,97.00
2018-08-25T18:33:34.704Z,96.99
2018-08-25T18:36:04.156Z,96.94
2018-08-25T18:38:33.775Z,96.92
2018-08-25T18:41:03.456Z,97.21
2018-08-25T18:43:33.336Z,97.69
2018-08-25T18:46:03.012Z,97.54
2018-08-25T18:48:32.533Z,97.35
2018-08-25T18:51:01.912Z,97.97
2018-08-25T18:53:31.321Z,97.61
2018-08-25T18:56:00.693Z,96.89
2018-08-25T18:58:30.199Z,97.25
2018-08-25T19:00:59.672Z,97.41
2018-08-25T19:03:29.247Z,97.57
2018-08-25T19:05:58.684Z,97.73
2018-08-25T19:08:28.139Z,98.96
2018-08-25T19:10:57.617Z,98.26
2018-08-25T19:13:27.092Z,98.21
2018-08-25T19:15:56.524Z,98.02
2018-08-25T19:18:25.930Z,96.61
2018-08-25T19:20:55.384Z,98.34
2018-08-25T19:23:24.790Z,97.59
2018-08-25T19:25:54.223Z,97.22
2018-08-25T19:28:23.924Z,97.55
2018-08-25T19:30:53.366Z,97.95
2018-08-25T19:33:22.864Z,98.78
2018-08-25T19:35:52.284Z,98.75
2018-08-25T19:38:21.801Z,99.31
2018-08-25T19:40:51.384Z,98.94
2018-08-25T19:43:20.890Z,99.85
2018-08-25T19:45:50.340Z,98.93
2018-08-25T19:48:19.896Z,99.25
2018-08-25T19:50:49.360Z,98.90
2018-08-25T19:53:18.885Z,98.84
2018-08-25T19:55:48.326Z,99.20
2018-08-25T19:58:18.139Z,97.66
2018-08-25T20:00:47.648Z,97.74
2018-08-25T20:03:17.087Z,98.26
2018-08-25T20:05:47.101Z,98.73
2018-08-25T20:08:16.594Z,98.44
2018-08-25T20:10:46.139Z,97.33
2018-08-25T20:13:15.669Z,96.66
2018-08-25T20:15:45.184Z,97.82
2018-08-25T20:18:14.976Z,98.06
2018-08-25T20:20:44.459Z,96.23
2018-08-25T20:23:13.813Z,95.88
2018-08-25T20:25:43.405Z,95.58
2018-08-25T20:28:12.951Z,95.62
2018-08-25T20:30:42.554Z,95.45
2018-08-25T20:33:12.095Z,95.47
2018-08-25T20:35:41.756Z,96.41
2018-08-25T20:38:11.254Z,98.04
2018-08-25T20:40:41.479Z,95.85
2018-08-25T20:43:10.900Z,95.33
2018-08-25T20:45:40.314Z,95.26
2018-08-25T20:48:09.753Z,96.00
2018-08-25T20:50:39.171Z,96.72
2018-08-25T20:53:08.608Z,96.38
2018-08-25T20:55:37.982Z,98.01
2018-08-25T20:58:07.517Z,98.30
2018-08-25T21:00:36.903Z,99.68
2018-08-25T21:03:06.300Z,98.18
2018-08-25T21:05:35.692Z,98.47
2018-08-25T21:08:05.011Z,98.12
2018-08-25T21:10:34.388Z,98.17
2018-08-25T21:13:03.731Z,99.48
2018-08-25T21:15:33.035Z,100.00
2018-08-25T21:18:02.392Z,99.82
2018-08-25T21:20:31.767Z,98.02
2018-08-25T21:23:01.411Z,97.48
2018-08-25T21:25:30.682Z,96.31
2018-08-25T21:27:59.964Z,94.53
2018-08-25T21:30:30.537Z,94.32
2018-08-25T21:32:59.923Z,94.67
2018-08-25T21:35:29.259Z,94.58
2018-08-25T21:37:58.636Z,94.51
2018-08-25T21:40:28.034Z,94.62
2018-08-25T21:42:57.486Z,95.41
2018-08-25T21:45:26.925Z,94.53
2018-08-25T21:47:56.204Z,93.34
2018-08-25T21:50:25.502Z,93.89
2018-08-25T21:52:54.899Z,94.46
2018-08-25T21:55:24.224Z,93.32
2018-08-25T21:57:53.544Z,94.28
2018-08-25T22:00:22.872Z,92.90
2018-08-25T22:02:52.280Z,93.89
2018-08-25T22:05:21.576Z,93.80
2018-08-25T22:07:50.888Z,94.35
2018-08-25T22:10:20.277Z,94.85
2018-08-25T22:12:50.243Z,95.75
2018-08-25T22:15:19.646Z,95.82
2018-08-25T22:17:49.736Z,96.11
2018-08-25T22:20:19.121Z,96.05
2018-08-25T22:22:48.741Z,95.00
2018-08-25T22:25:18.137Z,95.11
2018-08-25T22:27:47.457Z,94.42
2018-08-25T22:30:16.803Z,93.41
2018-08-25T22:32:46.125Z,93.75
2018-08-25T22:35:15.471Z,96.98
2018-08-25T22:37:44.875Z,97.08
2018-08-25T22:40:14.254Z,99.47
2018-08-25T22:42:43.577Z,99.84
2018-08-25T22:45:12.944Z,98.63
2018-08-25T22:47:42.297Z,95.92
2018-08-25T22:50:11.588Z,99.32
2018-08-25T22:52:46.241Z,97.48
2018-08-25T22:55:15.550Z,96.95
2018-08-25T22:57:44.866Z,96.18
2018-08-25T23:00:14.176Z,95.89
2018-08-25T23:02:43.533Z,96.45
2018-08-25T23:05:12.842Z,97.14
2018-08-25T23:07:43.538Z,97.20
2018-08-25T23:10:12.851Z,97.28
2018-08-25T23:12:42.133Z,97.55
2018-08-25T23:15:11.444Z,97.51
2018-08-25T23:17:40.872Z,97.93
2018-08-25T23:20:10.208Z,98.08
2018-08-25T23:22:39.648Z,98.88
2018-08-25T23:25:08.979Z,99.19
2018-08-25T23:27:38.300Z,99.44
2018-08-25T23:30:07.686Z,99.42
2018-08-25T23:32:37.041Z,99.39
2018-08-25T23:35:06.777Z,99.36
2018-08-25T23:37:36.122Z,99.46
2018-08-25T23:40:05.829Z,100.00
2018-08-25T23:42:35.447Z,98.54
2018-08-25T23:45:05.000Z,97.87
2018-08-25T23:47:34.415Z,98.34
2018-08-25T23:50:04.036Z,98.92
2018-08-25T23:52:35.816Z,99.19
2018-08-25T23:55:07.331Z,98.64
2018-08-25T23:57:36.788Z,98.41
